This is the latest recevied weather packets stored in our database for station/object JE7UPL-13. If no packets are shown the sender has not sent any weather packets the latest 10 day(s).
| Time | Temp. | Humidity | Pressure | Rain* | Wind** | Luminosity | Snow |
|---|---|---|---|---|---|---|---|
| 1777746605 | 12.78° C | 53% | 1005.9 hPa | 0 mm | - | - | - |
| 1777745704 | 12.78° C | 51% | 1005.8 hPa | 0 mm | - | - | - |
| 1777744805 | 12.78° C | 50% | 1005.8 hPa | 0 mm | - | - | - |
| 1777743904 | 12.78° C | 49% | 1005.8 hPa | 0 mm | - | - | - |
| 1777743005 | 12.78° C | 49% | 1005.9 hPa | 0 mm | - | - | - |
| 1777742105 | 12.78° C | 48% | 1005.8 hPa | 0 mm | - | - | - |
| 1777741205 | 12.78° C | 43% | 1005.8 hPa | 0 mm | - | - | - |
| 1777740305 | 12.78° C | 39% | 1005.2 hPa | 0 mm | - | - | - |
| 1777739405 | 12.78° C | 36% | 1005.4 hPa | 0 mm | - | - | - |
| 1777738504 | 12.78° C | 34% | 1005.5 hPa | 0 mm | - | - | - |
| 1777737605 | 12.22° C | 34% | 1005.4 hPa | 0 mm | - | - | - |
| 1777736705 | 10.56° C | 44% | 1005.1 hPa | 0 mm | - | - | - |
| 1777735805 | 9.44° C | 51% | 1005.4 hPa | 0 mm | - | - | - |
| 1777734904 | 9.44° C | 51% | 1005.6 hPa | 0 mm | - | - | - |
| 1777734009 | 8.89° C | 53% | 1006 hPa | 0 mm | - | - | - |
| 1777733105 | 8.89° C | 52% | 1005.7 hPa | 0 mm | - | - | - |
| 1777732205 | 8.89° C | 51% | 1005.6 hPa | 0 mm | - | - | - |
| 1777731305 | 10° C | 44% | 1005.7 hPa | 0 mm | - | - | - |
| 1777730406 | 10° C | 42% | 1005.7 hPa | 0 mm | - | - | - |
| 1777729505 | 10.56° C | 38% | 1005.8 hPa | 0 mm | - | - | - |
| 1777728606 | 11.11° C | 34% | 1005.9 hPa | 0 mm | - | - | - |
| 1777727705 | 11.67° C | 31% | 1005.6 hPa | 0 mm | - | - | - |
| 1777726805 | 11.67° C | 30% | 1005.7 hPa | 0 mm | - | - | - |
| 1777725905 | 12.22° C | 29% | 1005.6 hPa | 0 mm | - | - | - |
| 1777725005 | 12.22° C | 29% | 1005.3 hPa | 0 mm | - | - | - |
* Rain latest hour (hover to see other rain measurements)
** Current wind speed in m/s (hover to see current wind gust speed)